Time;durP1;ratioP1;P1;durP2;ratioP2;P2;SDS_P1;SDS_P2;PMS_P1;PMS_P2;Temp;Humidity;BMP_temperature;BMP_pressure;BME280_temperature;BME280_humidity;BME280_pressure;Samples;Min_cycle;Max_cycle;Signal;HPM_P1;HPM_P2
2022/05/15 00:01:23;;;;;;;4.53;2.85;;;16.10;97.80;;;;;;4936477;29;20039;-64
2022/05/15 00:03:49;;;;;;;9.10;2.97;;;16.10;97.80;;;;;;4917064;29;20040;-64
2022/05/15 00:06:16;;;;;;;12.80;2.90;;;16.10;98.10;;;;;;4918703;29;20032;-64
2022/05/15 00:08:42;;;;;;;6.55;3.30;;;16.00;98.10;;;;;;4917663;29;20035;-65
2022/05/15 00:11:10;;;;;;;8.25;3.35;;;16.00;98.10;;;;;;4917361;29;20032;-65
2022/05/15 00:13:38;;;;;;;9.90;3.35;;;16.00;98.30;;;;;;4918772;29;20032;-66
2022/05/15 00:16:04;;;;;;;6.50;2.97;;;15.90;98.50;;;;;;4918824;29;20048;-66
2022/05/15 00:18:30;;;;;;;6.20;3.17;;;15.90;98.80;;;;;;4917571;29;20499;-65
2022/05/15 00:20:56;;;;;;;7.57;3.22;;;15.80;98.90;;;;;;4917385;29;20032;-67
2022/05/15 00:23:23;;;;;;;3.45;2.78;;;;;;;;;;4918687;29;20055;-68
2022/05/15 00:25:50;;;;;;;16.25;3.70;;;15.80;99.20;;;;;;4918876;29;20550;-68
2022/05/15 00:28:16;;;;;;;6.45;2.95;;;15.70;99.30;;;;;;4918600;29;20028;-68
2022/05/15 00:30:42;;;;;;;4.93;3.53;;;15.70;99.90;;;;;;4918492;29;20028;-68
2022/05/15 00:33:08;;;;;;;7.22;3.50;;;15.80;99.90;;;;;;4917336;29;20032;-68
2022/05/15 00:35:37;;;;;;;6.63;2.80;;;15.60;99.90;;;;;;4916982;29;20075;-68
2022/05/15 00:38:08;;;;;;;4.45;3.33;;;15.80;99.90;;;;;;4918386;29;20032;-68
2022/05/15 00:40:37;;;;;;;6.97;3.15;;;15.50;99.90;;;;;;4918323;29;20037;-68
2022/05/15 00:43:02;;;;;;;6.07;3.75;;;14.80;99.90;;;;;;4918306;29;20376;-67
2022/05/15 00:45:28;;;;;;;5.53;3.60;;;15.50;99.90;;;;;;4917959;29;20111;-67
2022/05/15 00:47:54;;;;;;;5.45;3.33;;;15.50;99.90;;;;;;4918494;29;20036;-67
2022/05/15 00:50:27;;;;;;;5.65;3.25;;;15.50;99.90;;;;;;4916861;29;20432;-66
2022/05/15 00:52:58;;;;;;;7.97;3.38;;;14.60;99.90;;;;;;4918213;29;20040;-67
2022/05/15 00:55:44;;;;;;;5.13;3.63;;;15.50;99.90;;;;;;4918155;29;20032;-67
2022/05/15 00:58:17;;;;;;;6.97;3.60;;;15.30;99.90;;;;;;4917975;29;20076;-66
2022/05/15 01:00:43;;;;;;;13.63;3.72;;;15.40;99.90;;;;;;4918274;29;20047;-67
2022/05/15 01:03:13;;;;;;;6.57;3.60;;;15.30;99.90;;;;;;4916647;29;20028;-67
2022/05/15 01:05:43;;;;;;;8.98;4.05;;;15.30;99.90;;;;;;4916628;29;20454;-67
2022/05/15 01:08:09;;;;;;;6.95;3.85;;;15.10;99.90;;;;;;4917899;29;20105;-66
2022/05/15 01:10:39;;;;;;;9.73;4.15;;;15.20;99.90;;;;;;4918077;29;20075;-67
2022/05/15 01:13:06;;;;;;;7.13;3.67;;;15.00;99.90;;;;;;4917769;29;20418;-66
2022/05/15 01:15:31;;;;;;;8.18;3.60;;;15.00;99.90;;;;;;4917724;29;20036;-68
2022/05/15 01:17:57;;;;;;;7.88;3.70;;;15.00;99.90;;;;;;4917661;29;20152;-68
2022/05/15 01:20:27;;;;;;;4.90;3.45;;;15.00;99.90;;;;;;4917622;29;20040;-66
2022/05/15 01:22:54;;;;;;;13.07;4.13;;;15.00;99.90;;;;;;4917739;29;20040;-66
2022/05/15 01:25:23;;;;;;;11.25;4.13;;;14.90;99.90;;;;;;4917566;29;20028;-66
2022/05/15 01:28:02;;;;;;;8.40;3.60;;;14.90;99.90;;;;;;4917512;29;20064;-66
2022/05/15 01:30:27;;;;;;;9.98;3.70;;;14.90;99.90;;;;;;4917500;29;20115;-66
2022/05/15 01:32:53;;;;;;;4.30;3.38;;;14.80;99.90;;;;;;4917353;29;20076;-66
2022/05/15 01:35:19;;;;;;;6.38;3.65;;;14.70;99.90;;;;;;4915756;29;20716;-68
2022/05/15 01:37:45;;;;;;;8.93;3.90;;;;;;;;;;4915761;29;20036;-66
2022/05/15 01:40:12;;;;;;;8.07;4.00;;;14.70;99.90;;;;;;4917613;29;20147;-67
2022/05/15 01:42:38;;;;;;;9.02;3.47;;;14.70;99.90;;;;;;4917250;29;20125;-68
2022/05/15 01:45:06;;;;;;;5.78;3.95;;;14.70;99.90;;;;;;4915608;29;20565;-66
2022/05/15 01:47:32;;;;;;;5.35;3.60;;;14.70;99.90;;;;;;4917159;29;20024;-65
2022/05/15 01:49:58;;;;;;;12.20;4.07;;;14.70;99.90;;;;;;4917208;29;20508;-66
2022/05/15 01:52:24;;;;;;;8.57;4.15;;;14.70;99.90;;;;;;4917054;29;20072;-67
2022/05/15 01:54:50;;;;;;;8.77;4.20;;;14.70;99.90;;;;;;4917097;29;20028;-67
2022/05/15 01:57:16;;;;;;;9.65;3.60;;;14.70;99.90;;;;;;4917111;29;20393;-66
2022/05/15 01:59:42;;;;;;;6.30;3.95;;;14.70;99.90;;;;;;4917127;29;20080;-67
2022/05/15 02:02:08;;;;;;;8.05;4.03;;;14.60;99.90;;;;;;4915766;29;20036;-67
2022/05/15 02:04:34;;;;;;;8.60;4.15;;;14.60;99.90;;;;;;4914586;29;20032;-66
2022/05/15 02:07:00;;;;;;;7.75;4.07;;;14.60;99.90;;;;;;4916919;29;20028;-67
2022/05/15 02:09:26;;;;;;;7.32;3.70;;;14.60;99.90;;;;;;4915708;29;20039;-67
2022/05/15 02:11:52;;;;;;;9.27;4.07;;;14.60;99.90;;;;;;4916839;29;20099;-66
2022/05/15 02:14:18;;;;;;;12.77;4.13;;;14.60;99.90;;;;;;4915605;29;20032;-66
2022/05/15 02:16:44;;;;;;;7.57;3.47;;;14.60;99.90;;;;;;4916571;29;20039;-67
2022/05/15 02:19:10;;;;;;;5.05;3.80;;;14.60;99.90;;;;;;4915587;29;20056;-68
2022/05/15 02:21:35;;;;;;;6.95;3.75;;;14.60;99.90;;;;;;4916865;29;20039;-67
2022/05/15 02:24:02;;;;;;;5.93;4.35;;;14.50;99.90;;;;;;4915475;29;20378;-67
2022/05/15 02:26:29;;;;;;;6.45;3.42;;;14.60;99.90;;;;;;4916813;29;20025;-67
2022/05/15 02:28:54;;;;;;;5.20;3.97;;;14.60;99.90;;;;;;4915504;29;20024;-66
2022/05/15 02:31:20;;;;;;;12.90;3.80;;;14.60;99.90;;;;;;4915454;29;20389;-66
2022/05/15 02:33:46;;;;;;;8.45;4.78;;;14.70;99.90;;;;;;4914960;29;20489;-67
2022/05/15 02:36:12;;;;;;;8.85;4.53;;;14.70;99.90;;;;;;4916780;29;20052;-66
2022/05/15 02:38:39;;;;;;;9.95;4.40;;;14.70;99.90;;;;;;4916706;29;20024;-68
2022/05/15 02:41:05;;;;;;;7.03;3.72;;;14.60;99.90;;;;;;4915383;29;20079;-68
2022/05/15 02:43:31;;;;;;;4.70;3.85;;;14.50;99.90;;;;;;4915343;29;20461;-67
2022/05/15 02:45:57;;;;;;;7.75;4.30;;;14.40;99.90;;;;;;4916637;29;20035;-68
2022/05/15 02:51:08;;;;;;;9.88;4.97;;;14.30;99.90;;;;;;4916626;29;20035;-68
2022/05/15 02:53:38;;;;;;;5.68;4.18;;;14.30;99.90;;;;;;4916452;29;20042;-67
2022/05/15 02:56:08;;;;;;;8.30;4.05;;;14.30;99.90;;;;;;4916550;29;20115;-67
2022/05/15 02:58:34;;;;;;;6.15;4.00;;;14.30;99.90;;;;;;4920113;29;20032;-68
2022/05/15 03:01:00;;;;;;;10.57;4.97;;;14.30;99.90;;;;;;4918905;29;20556;-68
2022/05/15 03:03:27;;;;;;;6.85;5.10;;;14.30;99.90;;;;;;4920074;29;20052;-68
2022/05/15 03:05:53;;;;;;;10.95;4.88;;;14.20;99.90;;;;;;4920026;29;20035;-67
2022/05/15 03:08:19;;;;;;;11.40;5.43;;;14.20;99.90;;;;;;4919942;29;20037;-67
2022/05/15 03:10:45;;;;;;;11.52;5.40;;;14.10;99.90;;;;;;4920262;29;20036;-67
2022/05/15 03:13:11;;;;;;;8.73;5.47;;;14.00;99.90;;;;;;4918522;29;20040;-66
2022/05/15 03:15:37;;;;;;;10.27;5.25;;;13.90;99.90;;;;;;4918164;29;20485;-67
2022/05/15 03:18:03;;;;;;;13.85;5.22;;;13.90;99.90;;;;;;4919783;29;20381;-69
2022/05/15 03:20:29;;;;;;;11.93;5.50;;;13.90;99.90;;;;;;4919722;29;20039;-69
2022/05/15 03:22:56;;;;;;;12.02;5.47;;;13.90;99.90;;;;;;4919613;29;20107;-68
2022/05/15 03:25:22;;;;;;;8.80;4.97;;;13.90;99.90;;;;;;4919523;29;20036;-68
2022/05/15 03:27:48;;;;;;;8.45;4.93;;;13.90;99.90;;;;;;4918169;29;20036;-69
2022/05/15 03:30:14;;;;;;;9.68;5.30;;;13.90;99.90;;;;;;4919600;29;20055;-68
2022/05/15 03:32:40;;;;;;;9.38;6.47;;;13.80;99.90;;;;;;4919378;29;20032;-68
2022/05/15 03:35:08;;;;;;;7.78;6.30;;;13.80;99.90;;;;;;4919027;29;20063;-69
2022/05/15 03:37:34;;;;;;;10.45;5.38;;;13.80;99.90;;;;;;4919393;29;20035;-68
2022/05/15 03:40:00;;;;;;;8.32;5.28;;;13.70;99.90;;;;;;4919444;29;20029;-67
2022/05/15 03:42:26;;;;;;;9.32;4.90;;;13.70;99.90;;;;;;4919310;29;20038;-67
2022/05/15 03:44:53;;;;;;;10.00;5.47;;;13.80;99.90;;;;;;4918003;29;20034;-67
2022/05/15 03:47:19;;;;;;;9.27;4.53;;;13.80;99.90;;;;;;4919262;29;20043;-66
2022/05/15 03:49:45;;;;;;;8.60;5.63;;;13.80;99.90;;;;;;4919264;29;20028;-67
2022/05/15 03:52:11;;;;;;;9.55;4.97;;;13.80;99.90;;;;;;4919052;29;20040;-68
2022/05/15 03:54:38;;;;;;;9.55;5.18;;;13.90;99.90;;;;;;4917786;29;20032;-67
2022/05/15 03:57:04;;;;;;;6.57;4.85;;;13.90;99.90;;;;;;4919359;29;20040;-68
2022/05/15 03:59:34;;;;;;;12.20;4.80;;;13.90;99.90;;;;;;4918314;29;20036;-68
2022/05/15 04:02:01;;;;;;;8.95;4.88;;;13.90;99.90;;;;;;4919001;29;20032;-67
2022/05/15 04:04:27;;;;;;;10.25;5.05;;;13.90;99.90;;;;;;4919013;29;20020;-67
2022/05/15 04:06:53;;;;;;;11.43;5.28;;;13.90;99.90;;;;;;4918671;29;20446;-67
2022/05/15 04:09:21;;;;;;;10.93;5.18;;;14.00;99.90;;;;;;4918721;29;20029;-66
2022/05/15 04:11:47;;;;;;;12.98;5.40;;;13.90;99.90;;;;;;4917493;29;20059;-67
2022/05/15 04:14:13;;;;;;;9.18;4.82;;;14.00;99.90;;;;;;4918861;29;20055;-66
2022/05/15 04:16:39;;;;;;;13.15;5.53;;;14.00;99.90;;;;;;4918997;29;20496;-66
2022/05/15 04:19:05;;;;;;;18.20;5.13;;;14.00;99.90;;;;;;4918526;29;20032;-64
2022/05/15 04:21:37;;;;;;;9.95;5.00;;;14.00;99.90;;;;;;4918788;29;20057;-63
2022/05/15 04:24:17;;;;;;;9.90;5.30;;;14.10;99.90;;;;;;4917432;29;20083;-65
2022/05/15 04:26:46;;;;;;;13.80;5.75;;;14.10;99.90;;;;;;4917427;29;20429;-64
2022/05/15 04:29:13;;;;;;;10.40;5.00;;;14.20;99.90;;;;;;4917310;29;20040;-67
2022/05/15 04:31:39;;;;;;;9.90;5.20;;;14.20;99.90;;;;;;4918474;29;20028;-65
2022/05/15 04:34:05;;;;;;;11.30;5.43;;;14.30;99.90;;;;;;4918427;29;20056;-65
2022/05/15 04:36:32;;;;;;;7.78;5.05;;;14.30;99.90;;;;;;4918419;29;20037;-65
2022/05/15 04:38:58;;;;;;;13.00;5.57;;;14.30;99.90;;;;;;4918458;29;20028;-66
2022/05/15 04:41:24;;;;;;;11.88;5.30;;;14.40;99.90;;;;;;4918436;29;20032;-65
2022/05/15 04:43:51;;;;;;;17.75;5.85;;;14.50;99.90;;;;;;4918600;29;20059;-64
2022/05/15 04:46:16;;;;;;;13.98;6.13;;;14.60;99.90;;;;;;4918227;29;20032;-64
2022/05/15 04:48:43;;;;;;;11.38;5.88;;;14.60;99.90;;;;;;4918185;29;20492;-65
2022/05/15 04:51:09;;;;;;;18.83;5.97;;;14.80;99.90;;;;;;4916969;29;20156;-66
2022/05/15 04:53:36;;;;;;;16.20;5.72;;;14.80;99.90;;;;;;4917773;29;20459;-66
2022/05/15 04:56:02;;;;;;;11.20;4.88;;;14.90;99.90;;;;;;4918083;29;20028;-65
2022/05/15 04:58:28;;;;;;;11.05;5.97;;;15.00;99.90;;;;;;4918312;29;20043;-65
2022/05/15 05:00:54;;;;;;;11.35;5.70;;;15.10;99.90;;;;;;4918070;29;20493;-67
2022/05/15 05:03:20;;;;;;;9.52;4.88;;;15.20;99.90;;;;;;4917963;29;20032;-66
2022/05/15 05:05:46;;;;;;;10.43;4.78;;;15.30;99.90;;;;;;4917929;29;20064;-65
2022/05/15 05:08:13;;;;;;;12.13;4.60;;;15.40;99.90;;;;;;4916539;29;20461;-66
2022/05/15 05:10:39;;;;;;;7.97;4.32;;;15.50;99.90;;;;;;4918140;29;20115;-68
2022/05/15 05:13:05;;;;;;;9.57;4.75;;;15.60;99.90;;;;;;4917730;29;20040;-70
2022/05/15 05:15:31;;;;;;;7.38;4.18;;;15.70;99.90;;;;;;4917994;29;20485;-69
2022/05/15 05:17:57;;;;;;;12.13;5.10;;;15.70;99.90;;;;;;4917911;29;20028;-69
2022/05/15 05:20:23;;;;;;;7.82;4.38;;;15.90;99.90;;;;;;4917083;29;20106;-67
2022/05/15 05:22:50;;;;;;;9.20;3.83;;;16.00;99.90;;;;;;4917589;29;20028;-69
2022/05/15 05:25:16;;;;;;;11.15;4.72;;;16.10;99.90;;;;;;4917852;29;20047;-68
2022/05/15 05:27:43;;;;;;;8.63;4.68;;;16.10;99.90;;;;;;4917320;29;20028;-67
2022/05/15 05:30:21;;;;;;;8.73;4.60;;;16.20;99.90;;;;;;4917438;29;20035;-67
2022/05/15 05:32:48;;;;;;;5.47;4.30;;;16.30;99.90;;;;;;4916553;29;20036;-67
2022/05/15 05:35:15;;;;;;;11.95;4.60;;;16.30;99.90;;;;;;4924913;29;20039;-66
2022/05/15 05:37:41;;;;;;;7.25;4.15;;;16.40;99.90;;;;;;4927433;29;20035;-68
2022/05/15 05:40:08;;;;;;;10.07;4.43;;;16.50;99.90;;;;;;4931885;29;20024;-69
2022/05/15 05:42:34;;;;;;;13.05;4.88;;;16.60;99.90;;;;;;4936251;29;20093;-68
2022/05/15 05:45:02;;;;;;;14.10;8.15;;;16.70;99.90;;;;;;4935943;29;20389;-68
2022/05/15 05:47:29;;;;;;;15.73;9.13;;;16.80;99.90;;;;;;4936191;29;20091;-68
2022/05/15 05:49:55;;;;;;;14.07;9.32;;;16.80;99.90;;;;;;4936161;29;20492;-67
2022/05/15 05:52:23;;;;;;;15.43;8.82;;;16.90;99.90;;;;;;4935823;29;20043;-67
2022/05/15 05:54:49;;;;;;;13.85;6.90;;;17.00;99.90;;;;;;4936123;29;20031;-67
2022/05/15 05:57:15;;;;;;;8.07;5.18;;;;;;;;;;4934760;29;20028;-67
2022/05/15 05:59:41;;;;;;;10.45;5.75;;;;;;;;;;4936302;29;20111;-66
2022/05/15 06:02:07;;;;;;;10.15;4.85;;;;;;;;;;4935704;29;20401;-66
2022/05/15 06:04:40;;;;;;;8.68;4.45;;;;;;;;;;4936005;29;20031;-67
2022/05/15 06:07:06;;;;;;;13.88;4.35;;;;;;;;;;4936014;29;20098;-67
2022/05/15 06:09:32;;;;;;;9.25;3.90;;;17.10;99.90;;;;;;4935907;29;20381;-67
2022/05/15 06:11:58;;;;;;;11.70;4.15;;;;;;;;;;4935898;29;20067;-66
2022/05/15 06:14:25;;;;;;;11.98;4.57;;;17.80;99.90;;;;;;4930376;29;20027;-65
2022/05/15 06:16:51;;;;;;;13.48;4.38;;;18.00;99.90;;;;;;4932907;29;20031;-66
2022/05/15 06:19:16;;;;;;;7.40;3.47;;;18.00;99.90;;;;;;4934552;29;20110;-67
2022/05/15 06:21:44;;;;;;;10.18;3.50;;;;;;;;;;4934530;29;20461;-68
2022/05/15 06:24:09;;;;;;;17.35;3.78;;;18.10;99.90;;;;;;4935480;29;20024;-64
2022/05/15 06:26:35;;;;;;;11.20;4.35;;;18.30;99.90;;;;;;4935702;29;20036;-67
2022/05/15 06:29:01;;;;;;;18.05;4.38;;;18.30;99.90;;;;;;4934319;29;20037;-66
2022/05/15 06:31:27;;;;;;;11.10;3.92;;;;;;;;;;4936654;29;20031;-68
2022/05/15 06:33:53;;;;;;;7.82;4.18;;;18.60;99.90;;;;;;4939131;29;20595;-68
2022/05/15 06:36:18;;;;;;;12.75;4.22;;;18.60;99.90;;;;;;4938211;29;20111;-65
2022/05/15 06:38:44;;;;;;;10.05;4.22;;;18.80;99.90;;;;;;4937877;29;20034;-67
2022/05/15 06:41:11;;;;;;;12.77;4.55;;;18.80;99.90;;;;;;4939415;29;20031;-66
2022/05/15 06:43:37;;;;;;;8.30;3.92;;;18.90;99.90;;;;;;4937969;29;20057;-65
2022/05/15 06:46:03;;;;;;;10.75;3.55;;;19.00;99.90;;;;;;4939277;29;20031;-67
2022/05/15 06:48:29;;;;;;;9.57;4.47;;;19.10;99.90;;;;;;4953958;29;20122;-66
2022/05/15 06:50:55;;;;;;;10.80;4.43;;;19.20;99.90;;;;;;4939249;29;20119;-66
2022/05/15 06:53:21;;;;;;;7.63;3.40;;;;;;;;;;4938973;29;20031;-66
2022/05/15 06:58:52;;;;;;;8.55;4.25;;;;;;;;;;4917634;29;20413;-67
2022/05/15 07:01:18;;;;;;;6.90;3.13;;;;;;;;;;4917593;29;20036;-66
2022/05/15 07:03:44;;;;;;;10.25;3.53;;;19.30;99.90;;;;;;4927302;29;20048;-65
2022/05/15 07:06:10;;;;;;;7.65;3.85;;;19.90;99.90;;;;;;4918191;29;20035;-67
2022/05/15 07:08:36;;;;;;;14.50;4.40;;;;;;;;;;4919792;29;20028;-67
2022/05/15 07:11:02;;;;;;;10.95;4.35;;;;;;;;;;4919780;29;20028;-64
2022/05/15 07:13:28;;;;;;;10.45;3.88;;;20.00;99.90;;;;;;4934022;29;20055;-65
2022/05/15 07:15:55;;;;;;;9.13;3.47;;;20.40;99.90;;;;;;4938563;29;20476;-65
2022/05/15 07:18:23;;;;;;;11.07;3.38;;;20.40;99.90;;;;;;4938443;29;20038;-63
2022/05/15 07:20:50;;;;;;;8.05;3.08;;;;;;;;;;4938207;29;20476;-65
2022/05/15 07:23:16;;;;;;;9.48;3.03;;;;;;;;;;4937202;29;20028;-65
2022/05/15 07:25:42;;;;;;;7.53;2.90;;;20.90;99.90;;;;;;4938864;29;20032;-65
2022/05/15 07:28:08;;;;;;;9.02;3.58;;;;;;;;;;4937186;29;20119;-64
2022/05/15 07:30:34;;;;;;;9.70;2.90;;;21.10;99.90;;;;;;4934469;29;20058;-64
2022/05/15 07:33:00;;;;;;;8.90;2.88;;;;;;;;;;4919399;29;20466;-63
2022/05/15 07:35:28;;;;;;;7.38;2.60;;;21.20;99.70;;;;;;4918942;29;20048;-63
2022/05/15 07:37:54;;;;;;;9.95;3.75;;;;;;;;;;4919421;29;20035;-64
2022/05/15 07:40:21;;;;;;;10.00;2.50;;;;;;;;;;4919368;29;20125;-63
2022/05/15 07:42:47;;;;;;;15.48;2.65;;;;;;;;;;4919087;29;20032;-62
2022/05/15 07:45:15;;;;;;;31.42;4.05;;;21.70;98.00;;;;;;4919241;29;20028;-65
2022/05/15 07:47:41;;;;;;;11.20;3.38;;;21.80;98.00;;;;;;4919450;29;20389;-63
2022/05/15 07:50:08;;;;;;;5.60;2.50;;;21.90;98.20;;;;;;4919210;29;20032;-65
2022/05/15 07:52:35;;;;;;;14.23;3.47;;;21.90;97.70;;;;;;4919450;29;20082;-64
2022/05/15 07:55:01;;;;;;;8.95;2.58;;;22.10;98.60;;;;;;4919195;29;20028;-62
2022/05/15 07:57:27;;;;;;;4.45;2.20;;;22.20;96.50;;;;;;4919038;29;20037;-64
2022/05/15 07:59:53;;;;;;;7.82;2.83;;;22.20;96.00;;;;;;4919048;29;20374;-63
2022/05/15 08:02:19;;;;;;;6.20;2.63;;;22.30;96.60;;;;;;4918791;29;20393;-64
2022/05/15 08:10:14;;;;;;;6.38;2.53;;;22.60;94.20;;;;;;4918638;29;20058;-65
2022/05/15 08:12:40;;;;;;;7.18;2.10;;;22.70;94.80;;;;;;4917563;29;20551;-65
2022/05/15 08:15:07;;;;;;;4.97;2.08;;;;;;;;;;4916413;29;20028;-65
2022/05/15 08:17:33;;;;;;;7.45;2.33;;;22.80;95.20;;;;;;4918032;29;20425;-65
2022/05/15 08:25:27;;;;;;;5.85;1.70;;;23.30;88.80;;;;;;4918099;29;20536;-66
2022/05/15 08:27:54;;;;;;;5.60;1.40;;;23.40;89.10;;;;;;4918303;29;20028;-66
2022/05/15 08:30:20;;;;;;;6.13;1.50;;;23.40;88.50;;;;;;4918124;29;20028;-65
2022/05/15 08:32:46;;;;;;;4.78;2.10;;;23.50;85.60;;;;;;4915976;29;20115;-65
2022/05/15 08:35:12;;;;;;;5.28;2.10;;;23.60;90.00;;;;;;4917162;29;20080;-66
2022/05/15 08:37:40;;;;;;;5.18;1.70;;;23.60;91.00;;;;;;4916761;29;20401;-64
2022/05/15 08:40:06;;;;;;;6.40;1.70;;;23.80;85.70;;;;;;4916861;29;20056;-63
2022/05/15 08:42:50;;;;;;;5.03;2.40;;;24.10;86.60;;;;;;4916265;29;20461;-64
2022/05/15 08:45:18;;;;;;;7.97;2.03;;;24.10;88.20;;;;;;4916604;29;20125;-65
2022/05/15 08:47:46;;;;;;;4.10;1.63;;;24.10;84.10;;;;;;4916719;29;20036;-64
2022/05/15 08:50:25;;;;;;;4.93;1.90;;;24.20;84.60;;;;;;4917949;29;20035;-64
2022/05/15 08:52:59;;;;;;;7.25;1.83;;;24.20;88.40;;;;;;4917956;29;20047;-64
2022/05/15 08:55:32;;;;;;;7.25;1.95;;;24.50;87.50;;;;;;4916735;29;20035;-64
2022/05/15 08:58:08;;;;;;;7.75;2.17;;;24.50;87.70;;;;;;4917348;29;20080;-65
2022/05/15 09:00:39;;;;;;;2.95;1.70;;;24.60;89.50;;;;;;4917713;29;20413;-65
2022/05/15 09:03:24;;;;;;;5.97;1.90;;;24.70;85.10;;;;;;4917942;29;20469;-66
2022/05/15 09:06:10;;;;;;;6.18;1.60;;;24.70;85.00;;;;;;4917850;29;20094;-66
2022/05/15 09:09:30;;;;;;;7.88;2.00;;;25.10;84.20;;;;;;4917764;29;20059;-66
2022/05/15 09:12:11;;;;;;;6.80;2.05;;;25.00;93.10;;;;;;4877554;29;20052;-66
2022/05/15 09:15:21;;;;;;;4.18;1.63;;;25.30;85.80;;;;;;4877632;29;20069;-65
2022/05/15 09:17:58;;;;;;;6.35;1.70;;;25.50;77.90;;;;;;4840581;29;20053;-65
2022/05/15 09:20:24;;;;;;;5.68;2.03;;;25.60;81.00;;;;;;4840520;29;20046;-66
2022/05/15 09:23:14;;;;;;;6.38;1.90;;;25.60;81.50;;;;;;4840725;29;20373;-66
2022/05/15 09:25:40;;;;;;;7.63;2.10;;;25.60;78.50;;;;;;4840576;29;20029;-65
2022/05/15 09:28:12;;;;;;;6.30;1.95;;;25.80;79.20;;;;;;4840854;29;20085;-66
2022/05/15 09:30:44;;;;;;;4.80;1.77;;;26.00;81.20;;;;;;4840565;29;20424;-66
2022/05/15 09:33:37;;;;;;;4.22;1.85;;;26.00;80.50;;;;;;4825269;29;20395;-66
2022/05/15 09:36:17;;;;;;;6.45;1.40;;;26.20;79.80;;;;;;4840563;29;20045;-65
2022/05/15 09:38:43;;;;;;;2.72;1.52;;;26.30;89.00;;;;;;4840382;29;20057;-66
2022/05/15 09:44:00;;;;;;;2.83;1.60;;;26.40;99.90;;;;;;4840480;29;20514;-65
2022/05/15 09:46:27;;;;;;;5.13;1.90;;;26.90;87.30;;;;;;4866680;29;20041;-66
2022/05/15 09:49:01;;;;;;;5.63;1.60;;;26.90;82.90;;;;;;4861740;29;20595;-67
2022/05/15 09:51:58;;;;;;;3.55;1.52;;;27.20;79.90;;;;;;4877281;29;20036;-65
2022/05/15 09:54:38;;;;;;;6.55;1.60;;;27.20;84.10;;;;;;4857120;29;20053;-66
2022/05/15 09:57:24;;;;;;;4.20;1.67;;;27.20;93.20;;;;;;4843172;29;20033;-66
2022/05/15 09:59:58;;;;;;;5.20;1.70;;;27.20;76.40;;;;;;4858558;29;20033;-66
2022/05/15 10:02:43;;;;;;;3.53;1.48;;;27.30;76.80;;;;;;4858658;29;20524;-67
2022/05/15 10:05:19;;;;;;;7.63;1.20;;;27.50;71.20;;;;;;4858330;29;20041;-66
2022/05/15 10:08:12;;;;;;;2.90;1.40;;;;;;;;;;4858581;29;20034;-67
2022/05/15 10:10:58;;;;;;;5.55;1.40;;;28.10;69.70;;;;;;4856035;29;20046;-68
2022/05/15 10:13:30;;;;;;;5.80;1.40;;;28.40;66.00;;;;;;4842918;29;20061;-66
2022/05/15 10:16:02;;;;;;;3.70;1.35;;;28.50;66.50;;;;;;4842962;29;20129;-64
2022/05/15 10:18:34;;;;;;;8.82;1.90;;;28.80;67.70;;;;;;4858401;29;20045;-65
2022/05/15 10:21:01;;;;;;;5.22;1.27;;;28.80;67.00;;;;;;4858714;29;20041;-66
2022/05/15 10:23:52;;;;;;;5.50;1.40;;;28.70;72.10;;;;;;4858357;29;20133;-67
2022/05/15 10:26:44;;;;;;;5.93;1.93;;;28.40;65.00;;;;;;4850864;29;20049;-66
2022/05/15 10:29:28;;;;;;;7.07;1.73;;;28.60;62.20;;;;;;4851585;29;20444;-65
2022/05/15 10:32:03;;;;;;;4.75;1.40;;;29.20;69.10;;;;;;4914954;29;20047;-65
2022/05/15 10:34:31;;;;;;;5.50;1.45;;;29.40;64.50;;;;;;4916437;29;20480;-65
2022/05/15 10:37:16;;;;;;;5.03;2.17;;;29.90;62.30;;;;;;4915364;29;20028;-65
2022/05/15 10:40:03;;;;;;;5.45;1.50;;;30.70;64.60;;;;;;4916626;29;20034;-65
2022/05/15 10:42:58;;;;;;;5.78;1.60;;;31.10;61.80;;;;;;4916675;29;20040;-65
2022/05/15 10:45:35;;;;;;;5.47;1.40;;;32.10;59.90;;;;;;4916479;29;20099;-65
2022/05/15 10:48:27;;;;;;;2.55;1.48;;;33.10;57.50;;;;;;4916614;29;20077;-65
2022/05/15 10:51:00;;;;;;;;;;;32.80;56.80;;;;;;4917088;29;20032;-65
2022/05/15 10:59:57;;;;;;;5.18;1.60;;;33.00;54.00;;;;;;4916330;29;20503;-66
2022/05/15 11:02:55;;;;;;;4.25;1.67;;;33.40;54.50;;;;;;4910838;29;20040;-66
2022/05/15 11:05:30;;;;;;;3.05;1.50;;;33.80;57.60;;;;;;4911757;29;20480;-67
2022/05/15 11:08:31;;;;;;;4.60;1.75;;;33.00;52.40;;;;;;4912582;29;20822;-67
2022/05/15 11:11:16;;;;;;;5.70;1.75;;;34.20;51.90;;;;;;4915572;29;20040;-66
2022/05/15 11:13:54;;;;;;;4.05;1.40;;;;;;;;;;4916051;29;20401;-66
2022/05/15 11:16:38;;;;;;;1.70;1.27;;;34.70;53.70;;;;;;4916023;29;20021;-66
2022/05/15 11:19:25;;;;;;;3.90;1.30;;;34.90;51.40;;;;;;4918872;29;20036;-73
2022/05/15 11:22:11;;;;;;;5.43;1.58;;;;;;;;;;4919817;29;20031;-67
2022/05/15 11:24:54;;;;;;;4.40;1.88;;;35.50;52.00;;;;;;4919516;29;20024;-67
2022/05/15 11:27:24;;;;;;;3.58;1.10;;;;;;;;;;4919513;29;20028;-66
2022/05/15 11:29:54;;;;;;;3.28;1.80;;;36.50;49.10;;;;;;4918928;29;20028;-68
2022/05/15 11:32:39;;;;;;;5.00;1.65;;;36.60;49.90;;;;;;4919256;29;20036;-69
2022/05/15 11:35:17;;;;;;;5.50;1.33;;;36.30;49.50;;;;;;4918875;29;20048;-71
2022/05/15 11:37:53;;;;;;;2.38;1.38;;;35.90;49.40;;;;;;4918916;29;20035;-68
2022/05/15 11:40:30;;;;;;;3.70;1.40;;;36.50;49.40;;;;;;4924172;29;20118;-66
2022/05/15 11:42:57;;;;;;;3.20;1.52;;;;;;;;;;4924098;29;20038;-64
2022/05/15 11:45:32;;;;;;;3.20;1.50;;;;;;;;;;4929097;29;20016;-64
2022/05/15 11:48:21;;;;;;;1.67;1.42;;;38.00;48.00;;;;;;4927354;29;20425;-65
2022/05/15 11:51:12;;;;;;;4.82;1.50;;;38.00;48.60;;;;;;4929767;29;20020;-67
2022/05/15 11:53:49;;;;;;;3.75;1.42;;;38.10;48.30;;;;;;4928768;29;20469;-66
2022/05/15 11:56:39;;;;;;;2.97;1.55;;;37.50;47.70;;;;;;4918035;29;20036;-67
2022/05/15 11:59:14;;;;;;;5.07;2.17;;;37.10;48.40;;;;;;4918121;29;20064;-65
2022/05/15 12:01:40;;;;;;;5.85;1.13;;;;;;;;;;4918910;29;20745;-65
2022/05/15 12:04:16;;;;;;;4.47;1.85;;;;;;;;;;4933266;29;20052;-68
2022/05/15 12:06:57;;;;;;;3.17;1.50;;;;;;;;;;4933470;29;20031;-67
2022/05/15 12:09:30;;;;;;;4.78;1.55;;;37.80;48.10;;;;;;4933498;29;20102;-66
2022/05/15 12:11:58;;;;;;;6.30;1.38;;;;;;;;;;4918502;29;20029;-68
2022/05/15 12:14:29;;;;;;;5.60;1.35;;;38.90;47.30;;;;;;4937557;29;20035;-69
2022/05/15 12:17:13;;;;;;;3.93;1.13;;;;;;;;;;4937737;29;20408;-71
2022/05/15 12:19:40;;;;;;;5.68;1.67;;;38.40;46.30;;;;;;4936398;29;20055;-66
2022/05/15 12:22:10;;;;;;;5.50;1.23;;;39.30;45.80;;;;;;4937817;29;20035;-69
2022/05/15 12:24:38;;;;;;;4.00;1.48;;;;;;;;;;4937439;29;20027;-69
2022/05/15 12:27:04;;;;;;;3.40;1.30;;;;;;;;;;4937342;29;20032;-71
2022/05/15 12:29:36;;;;;;;3.47;1.38;;;;;;;;;;4936068;29;20035;-70
2022/05/15 12:32:09;;;;;;;4.70;1.48;;;40.30;45.00;;;;;;4937190;29;20031;-69
2022/05/15 12:34:38;;;;;;;10.48;2.03;;;;;;;;;;4935814;29;20051;-66
2022/05/15 12:37:10;;;;;;;5.07;1.50;;;;;;;;;;4937352;29;20481;-70
2022/05/15 12:39:38;;;;;;;5.40;1.30;;;;;;;;;;4937511;29;20034;-67
2022/05/15 12:42:09;;;;;;;6.60;1.40;;;;;;;;;;4937098;29;20035;-68
2022/05/15 12:44:37;;;;;;;8.07;1.30;;;;;;;;;;4935553;29;20047;-67
2022/05/15 12:47:06;;;;;;;11.98;1.88;;;41.50;44.70;;;;;;4935767;29;20060;-72
2022/05/15 12:49:42;;;;;;;3.30;1.20;;;;;;;;;;4937179;29;20110;-70
2022/05/15 12:52:27;;;;;;;4.20;1.73;;;41.60;44.00;;;;;;4936912;29;20111;-68
2022/05/15 12:54:59;;;;;;;3.58;1.73;;;41.50;42.20;;;;;;4936977;29;20028;-68
2022/05/15 12:57:25;;;;;;;3.72;1.13;;;;;;;;;;4935651;29;20039;-67
2022/05/15 12:59:53;;;;;;;4.68;1.60;;;42.40;44.10;;;;;;4935455;29;20028;-68
2022/05/15 13:02:30;;;;;;;2.45;1.40;;;42.70;43.90;;;;;;4936900;29;20051;-68
2022/05/15 13:04:58;;;;;;;4.32;1.13;;;42.50;42.60;;;;;;4936599;29;20388;-68
2022/05/15 13:07:27;;;;;;;3.88;1.17;;;42.40;42.70;;;;;;4935504;29;20039;-70
2022/05/15 13:10:20;;;;;;;5.65;1.42;;;42.00;43.30;;;;;;4936766;29;20051;-66
2022/05/15 13:13:20;;;;;;;5.40;1.10;;;42.40;43.50;;;;;;4931935;29;20048;-70
2022/05/15 13:15:51;;;;;;;3.38;1.27;;;40.50;39.80;;;;;;4936632;29;20035;-70
2022/05/15 13:18:17;;;;;;;5.68;1.20;;;42.30;40.80;;;;;;4935410;29;20032;-70
2022/05/15 13:20:50;;;;;;;3.15;1.08;;;43.00;41.50;;;;;;4936877;29;20055;-66
2022/05/15 13:23:17;;;;;;;6.43;1.27;;;43.20;40.90;;;;;;4935254;29;20075;-70
2022/05/15 13:25:47;;;;;;;5.18;1.27;;;42.70;41.00;;;;;;4936566;29;20544;-67
2022/05/15 13:28:13;;;;;;;7.30;1.30;;;;;;;;;;4936758;29;20032;-69
2022/05/15 13:30:41;;;;;;;2.85;1.25;;;;;;;;;;4930483;29;20028;-68
2022/05/15 13:33:13;;;;;;;5.28;1.35;;;;;;;;;;4917080;29;20386;-66
2022/05/15 13:35:40;;;;;;;3.40;1.50;;;;;;;;;;4915533;29;20044;-71
2022/05/15 13:38:15;;;;;;;5.80;1.25;;;;;;;;;;4917444;29;20055;-69
2022/05/15 13:43:32;;;;;;;3.47;1.20;;;;;;;;;;4916907;29;20516;-68
2022/05/15 13:46:03;;;;;;;3.80;1.30;;;;;;;;;;4917038;29;20124;-64